createdAt,value
2023-02-16T00:00:45.763Z,43.33
2023-02-16T00:05:48.422Z,43.40
2023-02-16T00:11:08.862Z,41.63
2023-02-16T00:16:28.914Z,41.93
2023-02-16T00:21:30.546Z,42.30
2023-02-16T00:26:34.695Z,45.08
2023-02-16T00:31:36.403Z,41.28
2023-02-16T00:36:38.110Z,49.30
2023-02-16T00:41:51.806Z,39.87
2023-02-16T00:46:53.608Z,44.57
2023-02-16T00:51:55.269Z,37.27
2023-02-16T00:56:57.491Z,41.87
2023-02-16T01:01:59.148Z,43.30
2023-02-16T01:07:19.391Z,42.70
2023-02-16T01:12:22.166Z,41.40
2023-02-16T01:17:25.227Z,42.67
2023-02-16T01:22:33.401Z,43.65
2023-02-16T01:27:37.599Z,41.63
2023-02-16T01:32:39.252Z,43.50
2023-02-16T01:37:42.576Z,42.92
2023-02-16T01:42:55.393Z,42.97
2023-02-16T01:48:04.976Z,37.33
2023-02-16T01:53:18.583Z,42.70
2023-02-16T01:58:35.282Z,43.88
2023-02-16T02:03:55.861Z,45.10
2023-02-16T02:09:23.200Z,36.28
2023-02-16T02:14:33.090Z,38.10
2023-02-16T02:19:48.062Z,44.42
2023-02-16T02:25:11.489Z,48.45
2023-02-16T02:30:37.747Z,43.10
2023-02-16T02:36:07.705Z,44.17
2023-02-16T02:41:44.282Z,41.47
2023-02-16T02:46:47.039Z,40.90
2023-02-16T02:51:50.201Z,39.33
2023-02-16T02:57:19.248Z,41.45
2023-02-16T03:02:24.196Z,46.37
2023-02-16T03:07:46.662Z,42.15
2023-02-16T03:12:48.413Z,40.47
2023-02-16T03:18:12.330Z,33.33
2023-02-16T03:23:32.764Z,37.80
2023-02-16T03:28:54.513Z,39.65
2023-02-16T03:33:56.466Z,45.75
2023-02-16T03:38:58.819Z,40.43
2023-02-16T03:44:00.838Z,48.08
2023-02-16T03:49:02.664Z,41.38
2023-02-16T03:54:04.269Z,48.45
2023-02-16T03:59:06.031Z,39.95
2023-02-16T04:04:07.667Z,41.10
2023-02-16T04:09:09.303Z,39.47
2023-02-16T04:14:10.931Z,33.97
2023-02-16T04:19:12.591Z,37.73
2023-02-16T04:24:14.193Z,41.75
2023-02-16T04:29:16.066Z,32.42
2023-02-16T04:34:17.733Z,33.08
2023-02-16T04:39:20.376Z,37.95
2023-02-16T04:44:22.047Z,40.80
2023-02-16T04:49:23.711Z,39.47
2023-02-16T04:54:25.329Z,45.80
2023-02-16T04:59:27.267Z,40.43
2023-02-16T05:04:29.007Z,40.78
2023-02-16T05:09:30.638Z,53.67
2023-02-16T05:14:43.381Z,49.72
2023-02-16T05:19:47.551Z,48.22
2023-02-16T05:24:49.370Z,49.20
2023-02-16T05:29:51.574Z,53.40
2023-02-16T05:34:53.216Z,48.60
2023-02-16T05:39:54.845Z,45.60
2023-02-16T05:44:56.455Z,44.15
2023-02-16T05:49:58.075Z,46.23
2023-02-16T05:54:59.706Z,47.30
2023-02-16T06:00:01.361Z,46.10
2023-02-16T06:05:06.537Z,45.47
2023-02-16T06:10:08.797Z,40.00
2023-02-16T06:15:11.017Z,38.87
2023-02-16T06:20:12.885Z,41.20
2023-02-16T06:25:14.602Z,42.37
2023-02-16T06:30:16.698Z,43.07
2023-02-16T06:35:18.643Z,51.87
2023-02-16T06:40:20.783Z,43.90
2023-02-16T06:45:22.395Z,38.93
2023-02-16T06:50:24.027Z,38.95
2023-02-16T06:55:25.622Z,48.90
2023-02-16T07:00:27.390Z,39.93
2023-02-16T07:05:29.077Z,38.60
2023-02-16T07:10:40.377Z,37.43
2023-02-16T07:15:50.485Z,40.45
2023-02-16T07:20:52.170Z,39.80
2023-02-16T07:25:53.898Z,41.90
2023-02-16T07:30:55.582Z,39.28
2023-02-16T07:35:57.228Z,41.83
2023-02-16T07:40:59.337Z,40.85
2023-02-16T07:46:01.634Z,40.80
2023-02-16T07:51:04.212Z,41.63
2023-02-16T07:56:06.431Z,45.47
2023-02-16T08:01:09.680Z,50.83
2023-02-16T08:06:11.874Z,48.55
2023-02-16T08:11:19.704Z,41.55
2023-02-16T08:16:24.390Z,39.97
2023-02-16T08:21:29.967Z,44.30
2023-02-16T08:26:41.325Z,40.22
2023-02-16T08:31:43.055Z,38.55
2023-02-16T08:36:47.375Z,41.40
2023-02-16T08:41:50.205Z,35.40
2023-02-16T08:46:55.117Z,38.85
2023-02-16T08:51:58.672Z,34.42
2023-02-16T08:57:02.993Z,38.78
2023-02-16T09:02:04.816Z,32.47
2023-02-16T09:07:06.458Z,37.42
2023-02-16T09:12:08.101Z,32.70
2023-02-16T09:17:09.788Z,33.75
2023-02-16T09:22:12.094Z,30.98
2023-02-16T09:27:13.734Z,32.97
2023-02-16T09:32:15.540Z,27.02
2023-02-16T09:37:17.170Z,30.70
2023-02-16T09:42:39.907Z,32.95
2023-02-16T09:47:45.100Z,28.30
2023-02-16T09:53:08.624Z,28.92
2023-02-16T09:58:21.545Z,27.42
2023-02-16T10:03:43.393Z,29.77
2023-02-16T10:09:07.987Z,31.45
2023-02-16T10:14:37.444Z,28.00
2023-02-16T10:19:47.240Z,23.48
2023-02-16T10:24:57.649Z,25.83
2023-02-16T10:29:59.407Z,23.83
2023-02-16T10:35:15.279Z,23.98
2023-02-16T10:40:34.411Z,17.58
2023-02-16T10:45:59.577Z,18.63
2023-02-16T10:51:03.552Z,18.10
2023-02-16T10:56:39.372Z,20.85
2023-02-16T11:01:46.349Z,19.58
2023-02-16T11:07:20.948Z,20.42
2023-02-16T11:12:32.476Z,20.67
2023-02-16T11:17:52.685Z,20.33
2023-02-16T11:23:06.706Z,19.67
2023-02-16T11:28:11.407Z,22.35
2023-02-16T11:33:26.923Z,19.50
2023-02-16T11:38:32.867Z,23.45
2023-02-16T11:43:38.907Z,19.55
2023-02-16T11:48:40.722Z,20.67
2023-02-16T11:53:45.169Z,19.63
2023-02-16T11:59:17.334Z,22.63
2023-02-16T12:04:44.956Z,19.70
2023-02-16T12:10:08.851Z,19.00
2023-02-16T12:15:57.210Z,23.25
2023-02-16T12:21:29.709Z,23.40
2023-02-16T12:26:41.588Z,26.13
2023-02-16T12:32:04.882Z,25.55
2023-02-16T12:37:15.906Z,20.92
2023-02-16T12:42:41.904Z,19.80
2023-02-16T12:47:54.132Z,22.10
2023-02-16T12:53:14.143Z,20.05
2023-02-16T12:58:15.870Z,22.13
2023-02-16T13:03:40.544Z,25.98
2023-02-16T13:09:10.583Z,25.13
2023-02-16T13:14:17.837Z,33.50
2023-02-16T13:19:19.906Z,18.95
2023-02-16T13:24:50.981Z,23.27
2023-02-16T13:30:17.586Z,22.38
2023-02-16T13:35:49.312Z,23.52
2023-02-16T13:41:30.459Z,27.30
2023-02-16T13:46:37.835Z,24.60
2023-02-16T13:51:46.281Z,25.15
2023-02-16T13:56:48.157Z,25.17
2023-02-16T14:01:53.563Z,20.85
2023-02-16T14:06:58.165Z,23.95
2023-02-16T14:12:02.231Z,21.10
2023-02-16T14:17:19.331Z,23.80
2023-02-16T14:22:31.990Z,17.55
2023-02-16T14:28:00.500Z,19.98
2023-02-16T14:33:17.222Z,16.50
2023-02-16T14:38:27.699Z,20.17
2023-02-16T14:43:39.626Z,19.05
2023-02-16T14:49:19.526Z,16.00
2023-02-16T14:54:45.697Z,17.15
2023-02-16T15:00:01.823Z,27.15
2023-02-16T15:05:37.336Z,17.50
2023-02-16T15:10:40.302Z,17.65
2023-02-16T15:15:48.884Z,20.33
2023-02-16T15:20:53.190Z,20.60
2023-02-16T15:25:59.473Z,22.35
2023-02-16T15:31:06.949Z,19.75
2023-02-16T15:36:09.047Z,23.75
2023-02-16T15:41:15.425Z,19.17
2023-02-16T15:46:32.472Z,18.13
2023-02-16T15:51:35.037Z,20.38
2023-02-16T15:56:48.544Z,17.88
2023-02-16T16:01:57.591Z,17.20
2023-02-16T16:07:00.167Z,20.25
2023-02-16T16:12:06.816Z,20.10
2023-02-16T16:17:14.133Z,18.33
2023-02-16T16:22:30.165Z,16.48
2023-02-16T16:27:38.160Z,23.48
2023-02-16T16:32:39.798Z,23.00
2023-02-16T16:37:41.572Z,20.98
2023-02-16T16:43:03.091Z,24.15
2023-02-16T16:48:16.483Z,22.70
2023-02-16T16:53:30.279Z,17.38
2023-02-16T16:58:31.913Z,20.00
2023-02-16T17:03:33.529Z,17.48
2023-02-16T17:08:35.257Z,22.05
2023-02-16T17:13:36.912Z,15.65
2023-02-16T17:18:39.702Z,21.58
2023-02-16T17:23:50.414Z,16.00
2023-02-16T17:28:54.380Z,15.77
2023-02-16T17:33:56.176Z,22.33
2023-02-16T17:38:58.205Z,18.50
2023-02-16T17:43:59.875Z,17.67
2023-02-16T17:49:01.540Z,20.85
2023-02-16T17:54:06.450Z,20.73
2023-02-16T17:59:10.236Z,19.35
2023-02-16T18:04:11.888Z,17.00
2023-02-16T18:09:20.644Z,18.48
2023-02-16T18:14:22.302Z,13.57
2023-02-16T18:19:23.941Z,17.05
2023-02-16T18:24:26.164Z,12.88
2023-02-16T18:29:27.925Z,13.27
2023-02-16T18:34:31.471Z,13.55
2023-02-16T18:39:33.361Z,17.25
2023-02-16T18:44:35.412Z,14.30
2023-02-16T18:49:37.058Z,11.82
2023-02-16T18:54:38.760Z,12.05
2023-02-16T18:59:40.558Z,15.40
2023-02-16T19:04:42.269Z,14.25
2023-02-16T19:09:43.913Z,11.38
2023-02-16T19:14:45.684Z,16.42
2023-02-16T19:19:47.432Z,17.40
2023-02-16T19:24:50.389Z,15.30
2023-02-16T19:29:52.170Z,12.65
2023-02-16T19:34:53.892Z,14.93
2023-02-16T19:39:55.651Z,17.58
2023-02-16T19:44:57.324Z,19.50
2023-02-16T19:49:59.192Z,15.35
2023-02-16T19:55:01.004Z,19.05
2023-02-16T20:00:04.964Z,17.27
2023-02-16T20:05:13.720Z,17.23
2023-02-16T20:10:15.343Z,16.83
2023-02-16T20:15:17.127Z,19.33
2023-02-16T20:20:19.046Z,19.33
2023-02-16T20:25:20.751Z,19.92
2023-02-16T20:30:25.268Z,22.50
2023-02-16T20:35:26.996Z,23.95
2023-02-16T20:40:28.612Z,22.15
2023-02-16T20:45:30.288Z,24.48
2023-02-16T20:50:31.890Z,22.27
2023-02-16T20:55:33.743Z,20.42
2023-02-16T21:00:35.416Z,22.48
2023-02-16T21:05:37.051Z,18.33
2023-02-16T21:10:38.699Z,18.08
2023-02-16T21:15:40.300Z,19.48
2023-02-16T21:20:41.895Z,19.73
2023-02-16T21:25:43.539Z,19.33
2023-02-16T21:30:45.141Z,23.30
2023-02-16T21:35:47.247Z,23.73
2023-02-16T21:41:07.187Z,18.27
2023-02-16T21:46:09.589Z,23.65
2023-02-16T21:51:12.682Z,17.45
2023-02-16T21:56:29.282Z,20.55
2023-02-16T22:01:33.801Z,19.92
2023-02-16T22:06:39.193Z,21.27
2023-02-16T22:11:41.146Z,16.35
2023-02-16T22:16:46.075Z,18.58
2023-02-16T22:21:48.435Z,17.98
2023-02-16T22:26:50.355Z,22.75
2023-02-16T22:31:52.027Z,21.08
2023-02-16T22:36:53.745Z,17.52
2023-02-16T22:41:55.359Z,17.67
2023-02-16T22:46:57.052Z,13.55
2023-02-16T22:51:58.738Z,17.27
2023-02-16T22:57:01.268Z,19.50
2023-02-16T23:02:02.884Z,17.27
2023-02-16T23:07:04.564Z,16.27
2023-02-16T23:12:06.566Z,20.88
2023-02-16T23:17:08.292Z,14.75
2023-02-16T23:22:09.919Z,14.82
2023-02-16T23:27:11.657Z,15.68
2023-02-16T23:32:13.250Z,18.75
2023-02-16T23:37:14.876Z,20.27
2023-02-16T23:42:16.496Z,17.75
2023-02-16T23:47:18.210Z,11.68
2023-02-16T23:52:19.853Z,19.30
2023-02-16T23:57:21.492Z,14.73
